createdAt,value
2018-07-10T00:02:32.496Z,22.38
2018-07-10T00:07:16.861Z,22.26
2018-07-10T00:14:11.597Z,22.13
2018-07-10T00:16:40.897Z,21.86
2018-07-10T00:19:10.071Z,21.65
2018-07-10T00:21:39.369Z,21.70
2018-07-10T00:24:08.578Z,21.64
2018-07-10T00:26:37.665Z,21.71
2018-07-10T00:29:06.891Z,21.66
2018-07-10T00:31:35.956Z,21.76
2018-07-10T00:34:05.152Z,21.64
2018-07-10T00:36:34.256Z,21.63
2018-07-10T00:39:08.667Z,21.64
2018-07-10T00:41:39.337Z,21.55
2018-07-10T00:44:09.420Z,21.57
2018-07-10T00:46:40.153Z,21.69
2018-07-10T00:49:09.393Z,21.81
2018-07-10T00:51:39.990Z,21.86
2018-07-10T00:54:09.719Z,21.79
2018-07-10T00:56:39.515Z,21.61
2018-07-10T00:59:08.861Z,21.46
2018-07-10T01:01:38.474Z,21.47
2018-07-10T01:04:08.232Z,21.42
2018-07-10T01:06:37.787Z,21.45
2018-07-10T01:09:07.781Z,21.42
2018-07-10T01:11:37.972Z,21.45
2018-07-10T01:14:07.174Z,21.52
2018-07-10T01:16:38.860Z,21.44
2018-07-10T01:19:13.869Z,21.41
2018-07-10T01:21:43.825Z,21.31
2018-07-10T01:24:14.716Z,21.32
2018-07-10T01:26:43.914Z,21.38
2018-07-10T01:29:51.890Z,21.34
2018-07-10T01:32:21.220Z,21.22
2018-07-10T01:34:50.422Z,21.21
2018-07-10T01:37:19.829Z,21.16
2018-07-10T01:39:49.046Z,21.18
2018-07-10T01:42:18.323Z,21.29
2018-07-10T01:44:47.530Z,21.29
2018-07-10T01:47:16.762Z,21.34
2018-07-10T01:49:46.018Z,21.38
2018-07-10T01:52:15.325Z,21.36
2018-07-10T01:54:44.625Z,21.36
2018-07-10T01:57:13.921Z,21.27
2018-07-10T01:59:43.126Z,21.28
2018-07-10T02:02:12.455Z,21.27
2018-07-10T02:04:41.823Z,21.23
2018-07-10T02:07:11.025Z,21.24
2018-07-10T02:09:40.161Z,21.30
2018-07-10T02:12:09.371Z,21.27
2018-07-10T02:14:39.069Z,21.25
2018-07-10T02:17:08.328Z,21.26
2018-07-10T02:19:37.753Z,21.33
2018-07-10T02:22:07.037Z,21.37
2018-07-10T02:24:37.243Z,21.50
2018-07-10T02:27:06.454Z,21.52
2018-07-10T02:29:36.222Z,21.55
2018-07-10T02:32:05.471Z,21.59
2018-07-10T02:34:34.682Z,21.55
2018-07-10T02:37:04.157Z,21.54
2018-07-10T02:39:33.281Z,21.55
2018-07-10T02:42:02.522Z,21.70
2018-07-10T02:44:32.408Z,21.70
2018-07-10T02:47:01.790Z,21.44
2018-07-10T02:49:31.004Z,21.29
2018-07-10T02:52:03.447Z,21.14
2018-07-10T02:54:48.168Z,21.06
2018-07-10T02:57:17.456Z,20.96
2018-07-10T02:59:47.043Z,20.90
2018-07-10T03:02:21.428Z,20.93
2018-07-10T03:04:59.618Z,21.00
2018-07-10T03:07:29.658Z,21.06
2018-07-10T03:09:59.881Z,21.22
2018-07-10T03:12:32.268Z,21.33
2018-07-10T03:15:04.217Z,21.34
2018-07-10T03:17:33.415Z,21.35
2018-07-10T03:20:04.300Z,21.26
2018-07-10T03:22:33.499Z,21.20
2018-07-10T03:25:02.965Z,21.17
2018-07-10T03:27:33.118Z,21.10
2018-07-10T03:30:03.040Z,21.05
2018-07-10T03:32:32.517Z,21.12
2018-07-10T03:35:01.928Z,21.18
2018-07-10T03:37:31.146Z,21.34
2018-07-10T03:40:00.298Z,21.31
2018-07-10T03:42:29.437Z,21.20
2018-07-10T03:44:58.764Z,21.20
2018-07-10T03:47:28.168Z,20.97
2018-07-10T03:49:57.317Z,20.76
2018-07-10T03:52:31.605Z,20.60
2018-07-10T03:55:02.946Z,20.46
2018-07-10T03:57:32.086Z,20.52
2018-07-10T04:00:06.307Z,20.49
2018-07-10T04:02:35.530Z,20.35
2018-07-10T04:05:04.698Z,20.34
2018-07-10T04:07:34.356Z,20.41
2018-07-10T04:10:03.685Z,20.47
2018-07-10T04:12:34.623Z,20.69
2018-07-10T04:15:05.222Z,20.91
2018-07-10T04:17:46.935Z,20.91
2018-07-10T04:20:17.954Z,20.83
2018-07-10T04:22:52.836Z,20.89
2018-07-10T04:25:28.894Z,20.87
2018-07-10T04:28:14.390Z,20.96
2018-07-10T04:30:53.906Z,20.93
2018-07-10T04:33:23.292Z,20.99
2018-07-10T04:35:52.655Z,21.03
2018-07-10T04:38:27.015Z,21.09
2018-07-10T04:41:01.432Z,21.10
2018-07-10T04:43:31.556Z,21.09
2018-07-10T04:46:00.822Z,21.13
2018-07-10T04:48:31.602Z,21.12
2018-07-10T04:51:12.105Z,21.08
2018-07-10T04:53:42.822Z,21.18
2018-07-10T04:56:13.410Z,21.25
2018-07-10T04:58:45.537Z,21.35
2018-07-10T05:01:15.095Z,21.24
2018-07-10T05:03:44.798Z,21.27
2018-07-10T05:06:13.905Z,21.21
2018-07-10T05:08:44.020Z,21.07
2018-07-10T05:11:13.197Z,21.10
2018-07-10T05:13:42.415Z,21.05
2018-07-10T05:16:11.529Z,20.92
2018-07-10T05:18:40.637Z,20.81
2018-07-10T05:21:12.790Z,20.62
2018-07-10T05:23:42.090Z,20.53
2018-07-10T05:26:14.549Z,20.50
2018-07-10T05:28:45.080Z,19.42
2018-07-10T05:31:14.283Z,19.88
2018-07-10T05:33:46.980Z,19.51
2018-07-10T05:36:17.103Z,19.60
2018-07-10T05:38:47.846Z,19.57
2018-07-10T05:41:19.086Z,19.66
2018-07-10T05:43:51.896Z,19.48
2018-07-10T05:46:22.998Z,19.18
2018-07-10T05:49:07.516Z,18.72
2018-07-10T05:51:44.571Z,19.03
2018-07-10T05:54:14.245Z,19.21
2018-07-10T05:56:43.307Z,19.10
2018-07-10T05:59:12.605Z,18.76
2018-07-10T06:01:42.754Z,18.81
2018-07-10T06:04:17.081Z,18.83
2018-07-10T06:06:47.062Z,18.58
2018-07-10T06:09:17.513Z,18.84
2018-07-10T06:11:46.819Z,19.16
2018-07-10T06:14:15.949Z,19.20
2018-07-10T06:16:45.444Z,19.37
2018-07-10T06:19:14.796Z,19.28
2018-07-10T06:21:47.825Z,19.29
2018-07-10T06:24:28.038Z,19.28
2018-07-10T06:27:02.088Z,18.82
2018-07-10T06:29:49.166Z,18.81
2018-07-10T06:32:20.133Z,18.69
2018-07-10T06:34:50.844Z,18.93
2018-07-10T06:37:29.950Z,19.16
2018-07-10T06:40:00.321Z,19.18
2018-07-10T06:42:33.500Z,19.17
2018-07-10T06:45:04.221Z,19.09
2018-07-10T06:47:40.584Z,19.29
2018-07-10T06:50:09.760Z,19.11
2018-07-10T06:52:42.634Z,18.87
2018-07-10T06:55:15.146Z,18.98
2018-07-10T06:57:53.565Z,19.33
2018-07-10T07:00:22.779Z,19.60
2018-07-10T07:02:52.017Z,19.72
2018-07-10T07:05:21.451Z,19.68
2018-07-10T07:07:50.577Z,19.54
2018-07-10T07:10:19.686Z,19.77
2018-07-10T07:12:49.257Z,19.85
2018-07-10T07:15:20.305Z,19.88
2018-07-10T07:17:51.870Z,19.54
2018-07-10T07:20:21.925Z,19.38
2018-07-10T07:22:51.344Z,19.49
2018-07-10T07:25:20.476Z,19.41
2018-07-10T07:27:49.548Z,19.56
2018-07-10T07:30:18.745Z,19.77
2018-07-10T07:32:48.639Z,19.56
2018-07-10T07:35:17.846Z,19.43
2018-07-10T07:37:47.174Z,19.36
2018-07-10T07:40:16.460Z,19.08
2018-07-10T07:42:45.499Z,19.09
2018-07-10T07:45:14.660Z,19.19
2018-07-10T07:47:44.145Z,19.19
2018-07-10T07:50:13.292Z,19.07
2018-07-10T07:52:42.376Z,19.26
2018-07-10T07:55:12.737Z,19.25
2018-07-10T07:57:41.830Z,19.38
2018-07-10T08:00:10.960Z,19.23
2018-07-10T08:02:40.421Z,19.51
2018-07-10T08:05:09.488Z,19.70
2018-07-10T08:07:38.638Z,19.57
2018-07-10T08:10:07.822Z,19.73
2018-07-10T08:12:36.963Z,20.04
2018-07-10T08:15:06.031Z,20.12
2018-07-10T08:17:36.953Z,19.97
2018-07-10T08:20:06.916Z,20.09
2018-07-10T08:22:36.285Z,20.27
2018-07-10T08:25:05.953Z,20.45
2018-07-10T08:27:36.783Z,20.22
2018-07-10T08:30:06.119Z,20.04
2018-07-10T08:32:36.749Z,20.03
2018-07-10T08:35:06.014Z,19.61
2018-07-10T08:37:35.172Z,19.87
2018-07-10T08:40:04.221Z,20.14
2018-07-10T08:42:33.343Z,20.07
2018-07-10T08:45:03.476Z,20.09
2018-07-10T08:47:32.734Z,20.01
2018-07-10T08:50:01.798Z,20.09
2018-07-10T08:52:30.925Z,20.30
2018-07-10T08:55:00.022Z,20.52
2018-07-10T08:57:29.071Z,20.69
2018-07-10T08:59:58.320Z,20.84
2018-07-10T09:02:28.091Z,21.02
2018-07-10T09:04:57.173Z,21.04
2018-07-10T09:07:26.228Z,21.13
2018-07-10T09:09:55.311Z,21.09
2018-07-10T09:12:24.482Z,20.85
2018-07-10T09:14:53.591Z,20.94
2018-07-10T09:17:22.664Z,21.00
2018-07-10T09:19:51.870Z,20.97
2018-07-10T09:22:20.996Z,21.09
2018-07-10T09:24:53.850Z,21.18
2018-07-10T09:27:23.729Z,21.11
2018-07-10T09:29:52.817Z,21.31
2018-07-10T09:32:27.337Z,21.34
2018-07-10T09:34:57.716Z,21.40
2018-07-10T09:37:33.928Z,21.12
2018-07-10T09:40:08.238Z,20.87
2018-07-10T09:42:42.410Z,20.87
2018-07-10T09:45:11.563Z,21.21
2018-07-10T09:47:40.631Z,21.50
2018-07-10T09:50:09.701Z,21.61
2018-07-10T09:52:38.879Z,20.97
2018-07-10T09:55:08.095Z,20.80
2018-07-10T09:57:38.605Z,20.63
2018-07-10T10:00:07.736Z,20.36
2018-07-10T10:02:37.273Z,20.17
2018-07-10T10:05:07.427Z,20.46
2018-07-10T10:07:36.668Z,19.70
2018-07-10T10:10:05.840Z,21.02
2018-07-10T10:12:34.926Z,21.73
2018-07-10T10:15:04.544Z,21.61
2018-07-10T10:17:33.662Z,21.78
2018-07-10T10:20:02.997Z,21.26
2018-07-10T10:22:33.058Z,21.49
2018-07-10T10:25:03.644Z,21.47
2018-07-10T10:27:32.814Z,21.44
2018-07-10T10:30:02.350Z,21.26
2018-07-10T10:32:31.759Z,20.99
2018-07-10T10:35:00.867Z,19.95
2018-07-10T10:37:29.983Z,21.29
2018-07-10T10:40:00.913Z,21.60
2018-07-10T10:42:30.063Z,21.60
2018-07-10T10:45:01.136Z,21.84
2018-07-10T10:47:31.448Z,22.19
2018-07-10T10:50:01.228Z,21.74
2018-07-10T10:52:30.835Z,21.83
2018-07-10T10:55:00.182Z,21.85
2018-07-10T10:57:33.285Z,21.82
2018-07-10T11:00:02.442Z,22.13
2018-07-10T11:02:31.653Z,22.07
2018-07-10T11:05:01.409Z,21.71
2018-07-10T11:07:31.761Z,21.58
2018-07-10T11:10:00.965Z,21.66
2018-07-10T11:12:30.950Z,21.58
2018-07-10T11:15:00.636Z,21.77
2018-07-10T11:17:33.566Z,21.93
2018-07-10T11:20:10.354Z,22.02
2018-07-10T11:22:45.485Z,21.89
2018-07-10T11:25:14.883Z,22.11
2018-07-10T11:27:52.846Z,22.18
2018-07-10T11:30:22.034Z,22.64
2018-07-10T11:32:51.103Z,22.90
2018-07-10T11:35:20.257Z,23.03
2018-07-10T11:37:49.331Z,22.87
2018-07-10T11:40:18.872Z,22.52
2018-07-10T11:42:47.987Z,22.45
2018-07-10T11:45:17.029Z,22.31
2018-07-10T11:47:46.174Z,22.55
2018-07-10T11:50:15.286Z,22.54
2018-07-10T11:52:44.322Z,22.58
2018-07-10T11:55:13.419Z,22.19
2018-07-10T11:57:42.758Z,22.36
2018-07-10T12:00:11.914Z,22.48
2018-07-10T12:02:45.281Z,22.43
2018-07-10T12:05:16.565Z,22.20
2018-07-10T12:07:49.272Z,22.03
2018-07-10T12:10:22.465Z,22.29
2018-07-10T12:12:52.543Z,22.50
2018-07-10T12:15:21.906Z,22.88
2018-07-10T12:17:56.701Z,22.73
2018-07-10T12:20:37.512Z,22.29
2018-07-10T12:23:08.066Z,22.24
2018-07-10T12:25:43.906Z,22.55
2018-07-10T12:28:14.147Z,22.74
2018-07-10T12:30:43.275Z,23.07
2018-07-10T12:33:12.355Z,23.37
2018-07-10T12:35:41.419Z,23.09
2018-07-10T12:38:10.543Z,22.79
2018-07-10T12:40:39.677Z,22.68
2018-07-10T12:43:08.843Z,22.54
2018-07-10T12:45:38.455Z,22.67
2018-07-10T12:48:07.529Z,22.65
2018-07-10T12:50:37.041Z,22.54
2018-07-10T12:53:06.157Z,22.51
2018-07-10T12:55:36.246Z,22.88
2018-07-10T12:58:05.569Z,23.13
2018-07-10T13:00:37.572Z,22.70
2018-07-10T13:03:08.737Z,22.61
2018-07-10T13:05:44.418Z,22.48
2018-07-10T13:08:13.506Z,22.56
2018-07-10T13:10:42.735Z,23.14
2018-07-10T13:13:11.931Z,23.09
2018-07-10T13:15:41.182Z,23.41
2018-07-10T13:18:10.395Z,23.44
2018-07-10T13:20:39.457Z,23.67
2018-07-10T13:23:08.589Z,23.87
2018-07-10T13:25:37.646Z,24.15
2018-07-10T13:28:07.052Z,23.83
2018-07-10T13:30:36.323Z,23.83
2018-07-10T13:33:05.556Z,23.67
2018-07-10T13:35:35.599Z,23.77
2018-07-10T13:38:04.963Z,24.41
2018-07-10T13:40:35.633Z,25.07
2018-07-10T13:43:04.732Z,25.58
2018-07-10T13:45:33.845Z,24.80
2018-07-10T13:48:03.043Z,23.89
2018-07-10T13:50:33.348Z,23.75
2018-07-10T13:53:03.246Z,23.72
2018-07-10T13:55:33.013Z,24.11
2018-07-10T13:58:20.051Z,23.23
2018-07-10T14:00:57.053Z,23.36
2018-07-10T14:03:26.274Z,23.82
2018-07-10T14:05:55.302Z,24.09
2018-07-10T14:08:24.411Z,24.42
2018-07-10T14:10:53.452Z,24.19
2018-07-10T14:13:22.542Z,24.13
2018-07-10T14:15:53.206Z,24.18
2018-07-10T14:18:23.681Z,24.07
2018-07-10T14:20:54.838Z,24.29
2018-07-10T14:23:23.922Z,23.99
2018-07-10T14:25:53.453Z,23.49
2018-07-10T14:28:22.710Z,23.37
2018-07-10T14:30:51.774Z,23.42
2018-07-10T14:33:21.112Z,24.01
2018-07-10T14:35:50.550Z,23.81
2018-07-10T14:38:25.729Z,23.94
2018-07-10T14:40:55.626Z,24.11
2018-07-10T14:43:28.409Z,24.46
2018-07-10T14:46:02.230Z,24.52
2018-07-10T14:48:37.290Z,25.50
2018-07-10T14:51:06.355Z,26.11
2018-07-10T14:53:35.784Z,26.26
2018-07-10T14:56:05.106Z,26.27
2018-07-10T14:58:35.366Z,25.93
2018-07-10T15:01:05.033Z,25.66
2018-07-10T15:03:34.177Z,25.83
2018-07-10T15:06:03.566Z,26.21
2018-07-10T15:08:32.627Z,26.29
2018-07-10T15:11:01.684Z,26.22
2018-07-10T15:13:41.823Z,26.03
2018-07-10T15:16:11.233Z,26.49
2018-07-10T15:18:42.322Z,26.45
2018-07-10T15:21:11.559Z,26.35
2018-07-10T15:23:40.867Z,26.00
2018-07-10T15:26:09.983Z,25.62
2018-07-10T15:28:39.157Z,25.64
2018-07-10T15:31:11.932Z,25.93
2018-07-10T15:33:41.427Z,25.86
2018-07-10T15:36:11.675Z,25.76
2018-07-10T15:38:40.899Z,25.79
2018-07-10T15:41:10.252Z,26.16
2018-07-10T15:43:40.153Z,25.81
2018-07-10T15:46:09.258Z,25.19
2018-07-10T15:48:38.437Z,24.93
2018-07-10T15:51:07.767Z,24.35
2018-07-10T15:53:36.959Z,24.32
2018-07-10T15:56:06.366Z,24.49
2018-07-10T15:58:36.902Z,24.68
2018-07-10T16:01:06.635Z,24.28
2018-07-10T16:03:36.209Z,23.74
2018-07-10T16:06:05.921Z,23.72
2018-07-10T16:08:38.364Z,24.06
2018-07-10T16:11:07.505Z,24.14
2018-07-10T16:13:40.188Z,23.88
2018-07-10T16:16:10.923Z,23.82
2018-07-10T16:18:44.197Z,24.03
2018-07-10T16:21:14.087Z,24.02
2018-07-10T16:23:43.752Z,24.02
2018-07-10T16:26:20.013Z,24.06
2018-07-10T16:28:49.094Z,24.03
2018-07-10T16:31:19.551Z,23.87
2018-07-10T16:33:48.638Z,23.79
2018-07-10T16:36:18.778Z,23.58
2018-07-10T16:38:47.963Z,24.07
2018-07-10T16:41:22.538Z,24.49
2018-07-10T16:43:52.574Z,24.80
2018-07-10T16:46:27.102Z,25.28
2018-07-10T16:49:06.486Z,25.73
2018-07-10T16:51:42.246Z,26.01
2018-07-10T16:54:11.717Z,26.00
2018-07-10T16:56:40.827Z,26.56
2018-07-10T16:59:10.106Z,26.19
2018-07-10T17:01:39.437Z,26.04
2018-07-10T17:04:08.715Z,26.34
2018-07-10T17:06:38.450Z,26.31
2018-07-10T17:09:07.509Z,26.49
2018-07-10T17:11:36.647Z,26.05
2018-07-10T17:14:05.753Z,26.03
2018-07-10T17:16:34.900Z,25.07
2018-07-10T17:19:04.155Z,24.48
2018-07-10T17:21:33.225Z,23.79
2018-07-10T17:24:03.770Z,23.85
2018-07-10T17:26:33.120Z,23.75
2018-07-10T17:29:07.620Z,23.73
2018-07-10T17:31:36.748Z,23.52
2018-07-10T17:34:05.987Z,23.52
2018-07-10T17:36:35.114Z,23.46
2018-07-10T17:39:05.668Z,23.30
2018-07-10T17:41:36.127Z,23.14
2018-07-10T17:44:07.864Z,23.12
2018-07-10T17:46:37.236Z,23.09
2018-07-10T17:49:06.450Z,23.24
2018-07-10T17:51:35.695Z,23.15
2018-07-10T17:54:05.273Z,23.07
2018-07-10T17:56:34.400Z,22.84
2018-07-10T17:59:06.082Z,22.54
2018-07-10T18:01:35.575Z,22.41
2018-07-10T18:04:04.914Z,22.46
2018-07-10T18:06:34.290Z,22.42
2018-07-10T18:09:04.661Z,22.75
2018-07-10T18:11:33.821Z,22.72
2018-07-10T18:14:02.906Z,22.81
2018-07-10T18:16:33.978Z,22.84
2018-07-10T18:19:03.984Z,22.81
2018-07-10T18:21:34.413Z,22.75
2018-07-10T18:24:03.827Z,22.75
2018-07-10T18:26:32.883Z,22.54
2018-07-10T18:29:01.975Z,22.54
2018-07-10T18:31:31.042Z,22.53
2018-07-10T18:34:00.165Z,22.43
2018-07-10T18:36:29.343Z,22.39
2018-07-10T18:38:58.534Z,22.31
2018-07-10T18:41:27.588Z,22.16
2018-07-10T18:43:56.751Z,19.52
2018-07-10T18:46:25.811Z,21.98
2018-07-10T18:48:54.922Z,22.24
2018-07-10T18:51:24.273Z,22.18
2018-07-10T18:53:53.376Z,22.07
2018-07-10T18:56:23.076Z,21.93
2018-07-10T18:59:01.360Z,21.88
2018-07-10T19:01:36.047Z,21.82
2018-07-10T19:04:05.267Z,21.94
2018-07-10T19:06:34.337Z,21.78
2018-07-10T19:09:04.387Z,21.84
2018-07-10T19:11:33.700Z,21.67
2018-07-10T19:14:03.101Z,21.65
2018-07-10T19:16:32.598Z,21.65
2018-07-10T19:19:04.210Z,21.52
2018-07-10T19:21:38.802Z,21.57
2018-07-10T19:24:15.537Z,21.46
2018-07-10T19:26:45.393Z,20.32
2018-07-10T19:29:21.550Z,21.30
2018-07-10T19:31:51.084Z,21.29
2018-07-10T19:34:20.450Z,21.30
2018-07-10T19:36:49.549Z,21.08
2018-07-10T19:39:18.619Z,21.13
2018-07-10T19:41:47.770Z,21.16
2018-07-10T19:44:16.952Z,21.06
2018-07-10T19:46:46.392Z,21.10
2018-07-10T19:49:17.454Z,20.99
2018-07-10T19:51:49.398Z,21.07
2018-07-10T19:54:18.486Z,21.09
2018-07-10T19:56:47.990Z,21.06
2018-07-10T19:59:17.728Z,21.06
2018-07-10T20:01:51.560Z,20.89
2018-07-10T20:04:32.897Z,20.84
2018-07-10T20:08:12.486Z,20.22
2018-07-10T20:10:47.357Z,20.92
2018-07-10T20:13:29.831Z,20.88
2018-07-10T20:17:06.668Z,20.95
2018-07-10T20:19:43.534Z,20.72
2018-07-10T20:22:17.902Z,20.65
2018-07-10T20:27:01.966Z,20.53
2018-07-10T20:30:16.086Z,20.35
2018-07-10T20:36:01.331Z,20.32
2018-07-10T20:38:30.423Z,20.23
2018-07-10T20:41:02.400Z,20.25
2018-07-10T20:43:34.161Z,20.27
2018-07-10T20:46:03.411Z,20.13
2018-07-10T20:48:54.161Z,20.04
2018-07-10T20:51:28.462Z,19.95
2018-07-10T20:54:06.590Z,19.83
2018-07-10T20:56:44.416Z,19.62
2018-07-10T20:59:19.664Z,19.74
2018-07-10T21:01:52.335Z,19.91
2018-07-10T21:04:32.023Z,20.08
2018-07-10T21:07:04.024Z,19.83
2018-07-10T21:09:56.661Z,19.78
2018-07-10T21:12:34.145Z,19.76
2018-07-10T21:15:06.654Z,19.64
2018-07-10T21:18:20.953Z,19.58
2018-07-10T21:20:58.990Z,19.62
2018-07-10T21:23:36.355Z,19.52
2018-07-10T21:26:11.970Z,19.56
2018-07-10T21:28:46.094Z,19.65
2018-07-10T21:31:51.862Z,19.47
2018-07-10T21:34:28.715Z,19.30
2018-07-10T21:37:08.294Z,19.29
2018-07-10T21:39:51.511Z,19.43
2018-07-10T21:42:39.882Z,19.46
2018-07-10T21:45:22.462Z,19.44
2018-07-10T21:50:09.298Z,19.35
2018-07-10T21:52:38.504Z,19.28
2018-07-10T21:55:07.618Z,19.37
2018-07-10T21:57:39.849Z,19.42
2018-07-10T22:00:08.954Z,19.42
2018-07-10T22:02:38.041Z,19.39
2018-07-10T22:05:07.449Z,19.20
2018-07-10T22:07:36.550Z,19.19
2018-07-10T22:10:06.987Z,19.16
2018-07-10T22:12:43.110Z,19.03
2018-07-10T22:15:12.645Z,18.76
2018-07-10T22:17:43.145Z,18.87
2018-07-10T22:20:12.281Z,18.86
2018-07-10T22:22:41.334Z,18.69
2018-07-10T22:25:10.529Z,18.80
2018-07-10T22:27:41.531Z,18.74
2018-07-10T22:30:20.822Z,18.66
2018-07-10T22:32:56.057Z,18.54
2018-07-10T22:35:25.213Z,18.59
2018-07-10T22:37:55.695Z,18.71
2018-07-10T22:40:24.770Z,18.82
2018-07-10T22:42:53.922Z,18.78
2018-07-10T22:45:23.164Z,18.71
2018-07-10T22:47:52.295Z,18.61
2018-07-10T22:50:23.324Z,18.59
2018-07-10T22:52:54.693Z,18.62
2018-07-10T22:55:28.924Z,18.60
2018-07-10T22:58:03.204Z,18.56
2018-07-10T23:00:35.035Z,18.50
2018-07-10T23:03:25.214Z,18.37
2018-07-10T23:05:54.993Z,18.44
2018-07-10T23:08:32.234Z,18.24
2018-07-10T23:11:03.094Z,18.12
2018-07-10T23:13:33.817Z,18.24
2018-07-10T23:16:02.862Z,18.41
2018-07-10T23:18:31.915Z,18.53
2018-07-10T23:21:01.003Z,18.45
2018-07-10T23:23:30.201Z,18.47
2018-07-10T23:25:59.968Z,18.24
2018-07-10T23:28:30.106Z,18.10
2018-07-10T23:30:59.173Z,17.91
2018-07-10T23:33:29.078Z,17.84
2018-07-10T23:36:01.111Z,17.71
2018-07-10T23:39:44.977Z,17.61
2018-07-10T23:42:47.948Z,17.53
2018-07-10T23:45:21.971Z,17.45
2018-07-10T23:47:51.568Z,17.42
2018-07-10T23:50:28.706Z,17.57
2018-07-10T23:53:22.420Z,17.64
2018-07-10T23:55:51.757Z,18.00
2018-07-10T23:58:20.831Z,18.19
